Time;durP1;ratioP1;P1;durP2;ratioP2;P2;SDS_P1;SDS_P2;PMS_P1;PMS_P2;Temp;Humidity;BMP_temperature;BMP_pressure;BME280_temperature;BME280_humidity;BME280_pressure;Samples;Min_cycle;Max_cycle;Signal;HPM_P1;HPM_P2
2023/09/22 00:01:12;;;;;;;13.48;6.57;;;21.30;99.90;;;;;;4962591;28;20047;-52
2023/09/22 00:03:38;;;;;;;13.85;6.40;;;21.30;99.90;;;;;;4996890;28;20026;-50
2023/09/22 00:06:04;;;;;;;10.95;6.55;;;21.20;99.90;;;;;;4996682;28;20022;-51
2023/09/22 00:08:30;;;;;;;13.27;6.70;;;21.10;99.90;;;;;;4996442;28;20081;-51
2023/09/22 00:10:55;;;;;;;11.18;6.35;;;21.20;99.90;;;;;;4996812;28;20050;-51
2023/09/22 00:13:21;;;;;;;11.27;6.75;;;21.10;99.90;;;;;;4996351;28;20371;-52
2023/09/22 00:15:47;;;;;;;11.07;6.28;;;21.00;99.90;;;;;;4996697;28;20030;-51
2023/09/22 00:18:13;;;;;;;18.15;7.35;;;21.00;99.90;;;;;;4962353;28;20034;-52
2023/09/22 00:20:39;;;;;;;13.30;6.00;;;21.00;99.90;;;;;;4996268;28;20037;-51
2023/09/22 00:23:04;;;;;;;12.48;6.35;;;21.20;99.90;;;;;;4930222;28;20034;-51
2023/09/22 00:25:31;;;;;;;12.45;7.05;;;21.20;99.90;;;;;;4996525;28;20022;-52
2023/09/22 00:27:57;;;;;;;13.45;6.93;;;21.10;99.90;;;;;;4996370;28;20497;-51
2023/09/22 00:30:23;;;;;;;14.57;5.97;;;21.00;99.90;;;;;;4996048;28;20082;-53
2023/09/22 00:32:49;;;;;;;13.38;6.97;;;20.80;99.90;;;;;;4996433;28;20034;-51
2023/09/22 00:35:15;;;;;;;14.18;7.03;;;20.60;99.90;;;;;;4996220;28;20088;-51
2023/09/22 00:37:41;;;;;;;9.32;5.50;;;20.80;99.90;;;;;;4995944;28;20034;-51
2023/09/22 00:40:08;;;;;;;11.60;6.68;;;20.70;99.90;;;;;;4996388;28;20030;-51
2023/09/22 00:42:34;;;;;;;10.75;5.88;;;20.60;99.90;;;;;;4962072;28;20065;-51
2023/09/22 00:45:00;;;;;;;8.07;4.38;;;;;;;;;;4961957;28;20470;-51
2023/09/22 00:47:27;;;;;;;7.57;5.22;;;;;;;;;;4995611;28;20433;-52
2023/09/22 00:49:54;;;;;;;9.50;4.93;;;20.20;99.90;;;;;;4996407;28;20031;-51
2023/09/22 00:52:22;;;;;;;10.80;6.03;;;20.20;99.90;;;;;;4996002;28;20066;-51
2023/09/22 00:54:49;;;;;;;9.52;5.05;;;20.10;99.90;;;;;;4995679;28;20045;-51
2023/09/22 00:57:18;;;;;;;7.35;4.25;;;20.10;99.90;;;;;;4995962;28;20054;-51
2023/09/22 00:59:47;;;;;;;10.27;5.18;;;20.10;99.90;;;;;;4995816;28;20058;-51
2023/09/22 01:02:13;;;;;;;11.40;5.88;;;20.20;99.90;;;;;;4961591;28;20081;-51
2023/09/22 01:04:39;;;;;;;10.85;5.30;;;20.20;99.90;;;;;;4995485;28;20033;-51
2023/09/22 01:07:06;;;;;;;12.93;4.53;;;20.20;99.90;;;;;;4995764;28;20030;-51
2023/09/22 01:09:31;;;;;;;14.55;5.68;;;20.20;99.90;;;;;;4995473;28;20034;-51
2023/09/22 01:11:57;;;;;;;8.80;4.70;;;20.20;99.90;;;;;;4961686;28;20099;-51
2023/09/22 01:14:23;;;;;;;8.93;6.00;;;20.20;99.90;;;;;;4913388;28;20051;-52
2023/09/22 01:16:51;;;;;;;11.30;6.35;;;20.20;99.90;;;;;;4995296;28;20105;-51
2023/09/22 01:19:18;;;;;;;19.25;5.13;;;20.40;99.90;;;;;;4995261;28;20068;-51
2023/09/22 01:21:46;;;;;;;11.23;5.07;;;20.40;99.90;;;;;;4995774;28;20031;-51
2023/09/22 01:24:13;;;;;;;9.63;4.82;;;20.40;99.90;;;;;;4995644;28;20038;-51
2023/09/22 01:26:39;;;;;;;12.77;6.28;;;20.30;99.90;;;;;;4995300;28;20066;-51
2023/09/22 01:29:06;;;;;;;9.15;5.45;;;20.20;99.90;;;;;;4995748;28;20446;-51
2023/09/22 01:31:33;;;;;;;13.88;5.30;;;20.20;99.90;;;;;;4995205;28;20061;-51
2023/09/22 01:34:01;;;;;;;10.57;5.18;;;20.10;99.90;;;;;;4994885;28;20044;-51
2023/09/22 01:36:28;;;;;;;10.77;5.07;;;20.20;99.90;;;;;;4954413;29;20126;-51
2023/09/22 01:38:54;;;;;;;11.23;6.80;;;20.10;99.90;;;;;;4954290;29;20063;-51
2023/09/22 01:41:20;;;;;;;12.13;5.20;;;20.10;99.90;;;;;;4954179;29;20049;-51
2023/09/22 01:43:45;;;;;;;13.68;5.85;;;20.10;99.90;;;;;;4954082;29;20023;-51
2023/09/22 01:46:11;;;;;;;16.67;6.07;;;20.10;99.90;;;;;;4953997;29;20494;-51
2023/09/22 01:48:37;;;;;;;9.68;5.63;;;20.10;99.90;;;;;;4938044;29;20066;-51
2023/09/22 01:51:03;;;;;;;12.63;6.13;;;20.10;99.90;;;;;;4953901;29;20047;-51
2023/09/22 01:53:29;;;;;;;11.98;5.85;;;20.20;99.90;;;;;;4921963;29;20050;-51
2023/09/22 01:55:55;;;;;;;10.23;5.80;;;20.40;99.90;;;;;;4953964;29;20055;-51
2023/09/22 01:58:21;;;;;;;11.18;6.18;;;20.40;99.90;;;;;;4953434;28;20036;-51
2023/09/22 02:00:48;;;;;;;12.95;5.50;;;20.60;99.90;;;;;;4953530;29;20044;-52
2023/09/22 02:03:14;;;;;;;10.48;6.20;;;20.60;99.90;;;;;;4953770;29;20062;-51
2023/09/22 02:05:40;;;;;;;12.90;6.80;;;20.60;99.90;;;;;;4953835;29;20031;-51
2023/09/22 02:08:08;;;;;;;15.32;6.05;;;20.50;99.90;;;;;;4985692;28;20040;-51
2023/09/22 02:10:34;;;;;;;12.98;6.10;;;20.60;99.90;;;;;;4994720;28;20113;-51
2023/09/22 02:13:00;;;;;;;12.68;6.22;;;20.50;99.90;;;;;;4994391;28;20030;-51
2023/09/22 02:15:25;;;;;;;8.73;6.00;;;20.50;99.90;;;;;;4944111;28;20053;-52
2023/09/22 02:17:51;;;;;;;13.60;6.43;;;20.40;99.90;;;;;;4994341;28;20030;-51
2023/09/22 02:20:23;;;;;;;9.02;5.97;;;20.40;99.90;;;;;;4994557;28;20041;-51
2023/09/22 02:22:51;;;;;;;10.45;6.10;;;20.40;99.90;;;;;;4994196;28;20029;-52
2023/09/22 02:25:17;;;;;;;9.82;5.68;;;20.40;99.90;;;;;;4994233;28;20041;-51
2023/09/22 02:27:51;;;;;;;13.32;6.43;;;20.40;99.90;;;;;;4994627;28;20038;-51
2023/09/22 02:30:17;;;;;;;15.95;7.07;;;20.50;99.90;;;;;;4993972;28;20474;-51
2023/09/22 02:32:48;;;;;;;14.43;5.70;;;20.40;99.90;;;;;;4994020;28;20041;-52
2023/09/22 02:35:17;;;;;;;12.57;5.38;;;20.40;99.90;;;;;;4991408;28;20460;-51
2023/09/22 02:37:44;;;;;;;11.50;5.38;;;20.40;99.90;;;;;;4975877;28;20046;-51
2023/09/22 02:40:12;;;;;;;10.88;5.60;;;20.40;99.90;;;;;;4993808;28;20474;-52
2023/09/22 02:42:38;;;;;;;12.93;6.85;;;20.50;99.90;;;;;;4994294;28;20034;-52
2023/09/22 02:45:06;;;;;;;16.00;6.28;;;20.50;99.90;;;;;;4994080;28;20022;-52
2023/09/22 02:47:32;;;;;;;11.43;6.10;;;20.50;99.90;;;;;;4993331;28;20045;-52
2023/09/22 02:49:58;;;;;;;16.77;6.30;;;20.40;99.90;;;;;;4994031;28;20440;-52
2023/09/22 02:52:23;;;;;;;10.30;5.97;;;20.60;99.90;;;;;;4994158;28;20030;-52
2023/09/22 02:54:59;;;;;;;11.48;6.85;;;20.70;99.90;;;;;;4959812;28;20138;-52
2023/09/22 02:57:25;;;;;;;11.20;6.20;;;20.70;99.90;;;;;;4993792;28;20458;-51
2023/09/22 02:59:53;;;;;;;12.15;6.20;;;20.60;99.90;;;;;;4994142;28;20031;-52
2023/09/22 03:02:19;;;;;;;12.40;6.45;;;20.60;99.90;;;;;;4993705;28;20042;-52
2023/09/22 03:04:46;;;;;;;16.48;7.15;;;20.50;99.90;;;;;;4993649;28;20029;-52
2023/09/22 03:07:13;;;;;;;11.50;6.47;;;20.40;99.90;;;;;;4993811;28;20114;-52
2023/09/22 03:09:39;;;;;;;15.30;5.75;;;20.30;99.90;;;;;;4993799;28;20030;-52
2023/09/22 03:12:05;;;;;;;11.40;5.90;;;20.30;99.90;;;;;;4997618;28;20109;-52
2023/09/22 03:14:31;;;;;;;13.23;6.40;;;20.20;99.90;;;;;;4931635;28;20042;-52
2023/09/22 03:16:57;;;;;;;10.85;5.65;;;20.30;99.90;;;;;;4997989;28;20030;-52
2023/09/22 03:19:23;;;;;;;13.98;6.68;;;20.30;99.90;;;;;;4997431;28;20474;-53
2023/09/22 03:21:49;;;;;;;14.27;6.07;;;20.10;99.90;;;;;;4997682;28;20026;-52
2023/09/22 03:24:15;;;;;;;12.52;5.68;;;20.10;99.90;;;;;;4997644;28;20109;-52
2023/09/22 03:26:41;;;;;;;10.45;5.70;;;20.10;99.90;;;;;;4997460;28;20038;-51
2023/09/22 03:29:06;;;;;;;14.48;6.22;;;20.00;99.90;;;;;;4997381;28;20030;-52
2023/09/22 03:31:32;;;;;;;10.02;5.45;;;20.20;99.90;;;;;;4963045;28;20057;-52
2023/09/22 03:33:58;;;;;;;12.55;5.72;;;20.20;99.90;;;;;;4997428;28;20054;-52
2023/09/22 03:36:24;;;;;;;10.60;6.43;;;20.10;99.90;;;;;;4997054;28;20038;-53
2023/09/22 03:38:51;;;;;;;13.90;5.85;;;20.10;99.90;;;;;;4997497;28;20038;-52
2023/09/22 03:41:18;;;;;;;13.45;6.03;;;20.00;99.90;;;;;;4997455;28;20024;-52
2023/09/22 03:43:44;;;;;;;10.95;5.65;;;19.90;99.90;;;;;;4997099;28;20040;-52
2023/09/22 03:46:10;;;;;;;11.80;5.57;;;19.80;99.90;;;;;;4997553;28;20059;-53
2023/09/22 03:48:39;;;;;;;12.35;6.05;;;;;;;;;;4997099;28;20474;-52
2023/09/22 03:51:05;;;;;;;14.88;5.63;;;19.80;99.90;;;;;;4997135;28;20030;-51
2023/09/22 03:53:31;;;;;;;11.70;5.30;;;19.80;99.90;;;;;;4996812;28;20125;-52
2023/09/22 03:55:59;;;;;;;16.52;6.53;;;19.70;99.90;;;;;;4996890;28;20116;-51
2023/09/22 03:58:26;;;;;;;13.18;6.07;;;;;;;;;;4996912;28;20038;-52
2023/09/22 04:01:02;;;;;;;12.50;5.90;;;19.50;99.90;;;;;;4962876;28;20034;-51
2023/09/22 04:03:28;;;;;;;11.07;5.85;;;19.70;99.90;;;;;;4951283;28;20034;-51
2023/09/22 04:05:54;;;;;;;8.85;5.47;;;19.60;99.90;;;;;;4997010;28;20026;-51
2023/09/22 04:08:21;;;;;;;11.98;5.43;;;19.60;99.90;;;;;;4996471;28;20049;-51
2023/09/22 04:10:47;;;;;;;13.15;5.78;;;19.50;99.90;;;;;;4996837;28;20057;-51
2023/09/22 04:13:14;;;;;;;19.25;5.90;;;19.40;99.90;;;;;;4996741;28;20477;-51
2023/09/22 04:15:40;;;;;;;12.75;5.50;;;19.40;99.90;;;;;;4996670;28;20073;-51
2023/09/22 04:18:07;;;;;;;10.55;5.15;;;19.40;99.90;;;;;;4996576;28;20038;-52
2023/09/22 04:20:37;;;;;;;16.33;5.63;;;19.40;99.90;;;;;;4996496;28;20042;-51
2023/09/22 04:23:04;;;;;;;18.55;5.28;;;19.30;99.90;;;;;;4996453;28;20030;-51
2023/09/22 04:25:34;;;;;;;11.45;6.00;;;19.40;99.90;;;;;;4996247;28;20038;-51
2023/09/22 04:28:11;;;;;;;9.75;5.40;;;19.40;99.90;;;;;;4996794;28;20382;-51
2023/09/22 04:30:43;;;;;;;9.63;5.57;;;19.40;99.90;;;;;;4983521;28;20054;-50
2023/09/22 04:33:12;;;;;;;11.60;5.15;;;19.40;99.90;;;;;;4977119;28;20038;-50
2023/09/22 04:35:37;;;;;;;13.40;5.47;;;19.30;99.90;;;;;;4974563;28;20507;-51
2023/09/22 04:38:04;;;;;;;11.80;5.35;;;19.30;99.90;;;;;;4990405;28;20124;-51
2023/09/22 04:40:36;;;;;;;12.45;6.93;;;19.50;99.90;;;;;;4995455;28;20036;-51
2023/09/22 04:43:03;;;;;;;11.18;5.22;;;19.50;99.90;;;;;;4995731;28;20177;-50
2023/09/22 04:45:29;;;;;;;12.48;5.57;;;19.50;99.90;;;;;;4961277;28;20065;-50
2023/09/22 04:47:55;;;;;;;11.32;5.90;;;19.50;99.90;;;;;;4974796;28;20500;-51
2023/09/22 04:50:22;;;;;;;12.30;5.65;;;19.50;99.90;;;;;;4995349;28;20028;-50
2023/09/22 04:52:49;;;;;;;9.55;5.72;;;19.40;99.90;;;;;;4993564;28;20050;-50
2023/09/22 04:55:19;;;;;;;17.50;5.80;;;19.60;99.90;;;;;;4993201;28;20042;-50
2023/09/22 04:57:45;;;;;;;13.43;6.20;;;19.50;99.90;;;;;;4991496;28;20069;-51
2023/09/22 05:00:23;;;;;;;11.38;5.43;;;19.40;99.90;;;;;;4989730;28;20031;-52
2023/09/22 05:02:50;;;;;;;14.65;5.25;;;;;;;;;;4963054;28;20054;-50
2023/09/22 05:05:18;;;;;;;12.88;5.38;;;19.40;99.90;;;;;;4994714;28;20094;-49
2023/09/22 05:07:45;;;;;;;15.43;6.63;;;19.40;99.90;;;;;;4960969;28;20072;-51
2023/09/22 05:10:11;;;;;;;10.00;5.68;;;19.40;99.90;;;;;;4995266;28;20146;-50
2023/09/22 05:12:37;;;;;;;11.57;4.80;;;19.60;99.90;;;;;;4995115;28;20042;-51
2023/09/22 05:15:04;;;;;;;11.95;5.55;;;19.50;99.90;;;;;;4994887;28;20034;-50
2023/09/22 05:17:30;;;;;;;14.90;6.43;;;19.60;99.90;;;;;;4977105;28;20034;-50
2023/09/22 05:19:58;;;;;;;11.55;6.45;;;19.80;99.90;;;;;;4995467;28;20034;-50
2023/09/22 05:22:24;;;;;;;14.45;7.57;;;19.90;99.90;;;;;;4995489;28;20085;-51
2023/09/22 05:24:50;;;;;;;15.65;6.85;;;19.90;99.90;;;;;;4995635;28;20061;-51
2023/09/22 05:27:16;;;;;;;15.60;7.43;;;19.90;99.90;;;;;;4961203;28;20038;-51
2023/09/22 05:29:42;;;;;;;14.75;6.75;;;20.10;99.90;;;;;;4994307;28;20033;-51
2023/09/22 05:32:09;;;;;;;11.57;5.68;;;20.20;99.90;;;;;;4994620;28;20086;-51
2023/09/22 05:34:35;;;;;;;11.80;5.20;;;20.40;99.90;;;;;;4994177;28;20100;-50
2023/09/22 05:37:01;;;;;;;13.88;5.85;;;20.50;99.90;;;;;;4995295;28;20402;-51
2023/09/22 05:39:27;;;;;;;10.02;5.43;;;20.60;99.90;;;;;;4960973;28;20042;-51
2023/09/22 05:41:53;;;;;;;12.52;4.50;;;;;;;;;;4961011;28;20046;-51
2023/09/22 05:44:19;;;;;;;9.13;4.13;;;21.00;99.90;;;;;;4994932;28;20073;-50
2023/09/22 05:46:44;;;;;;;7.65;4.43;;;21.00;99.90;;;;;;4995184;28;20402;-51
2023/09/22 05:49:14;;;;;;;13.48;3.70;;;21.10;99.90;;;;;;4994840;28;20050;-51
2023/09/22 05:51:43;;;;;;;7.97;3.83;;;21.20;99.90;;;;;;4994910;28;20121;-51
2023/09/22 05:54:09;;;;;;;10.77;4.45;;;21.40;99.90;;;;;;4995038;28;20041;-51
2023/09/22 05:56:35;;;;;;;10.18;4.13;;;21.50;99.90;;;;;;4994757;28;20030;-51
2023/09/22 05:59:03;;;;;;;9.30;3.92;;;21.70;99.90;;;;;;4994960;28;20026;-51
2023/09/22 06:01:30;;;;;;;9.07;3.97;;;21.70;99.90;;;;;;4994631;28;20039;-51
2023/09/22 06:03:56;;;;;;;9.80;3.90;;;21.90;99.90;;;;;;4994556;28;20021;-51
2023/09/22 06:06:22;;;;;;;11.00;3.90;;;22.00;99.90;;;;;;4994752;28;20026;-51
2023/09/22 06:08:50;;;;;;;9.45;3.58;;;22.10;99.90;;;;;;4994758;28;20085;-53
2023/09/22 06:11:17;;;;;;;11.85;3.58;;;22.30;99.90;;;;;;4994592;28;20389;-51
2023/09/22 06:13:43;;;;;;;9.98;3.47;;;22.40;99.90;;;;;;4994153;28;20496;-51
2023/09/22 06:16:09;;;;;;;11.93;3.80;;;22.50;99.90;;;;;;4994572;28;20030;-51
2023/09/22 06:18:37;;;;;;;10.82;4.45;;;;;;;;;;4994236;28;20509;-51
2023/09/22 06:21:04;;;;;;;9.85;3.60;;;22.90;99.90;;;;;;4994261;28;20486;-51
2023/09/22 06:23:30;;;;;;;9.63;3.92;;;23.00;99.90;;;;;;4994351;28;20038;-50
2023/09/22 06:26:04;;;;;;;11.30;3.97;;;23.10;99.90;;;;;;4960199;28;20113;-51
2023/09/22 06:28:30;;;;;;;10.15;4.07;;;23.00;99.90;;;;;;4994657;28;20034;-51
2023/09/22 06:31:04;;;;;;;11.23;3.55;;;21.80;99.90;;;;;;4993994;28;20157;-51
2023/09/22 06:33:30;;;;;;;12.93;3.63;;;;;;;;;;4944041;28;20042;-51
2023/09/22 06:35:59;;;;;;;9.63;4.70;;;23.10;99.90;;;;;;4994242;28;20073;-51
2023/09/22 06:38:25;;;;;;;11.27;4.00;;;23.10;99.90;;;;;;4994151;28;20030;-51
2023/09/22 06:40:55;;;;;;;8.98;3.90;;;23.40;99.90;;;;;;4993989;28;20026;-51
2023/09/22 06:43:24;;;;;;;10.18;4.05;;;23.80;99.90;;;;;;4960976;28;20502;-50
2023/09/22 06:45:54;;;;;;;13.07;3.72;;;23.90;99.90;;;;;;4993573;28;20030;-50
2023/09/22 06:48:27;;;;;;;9.67;4.07;;;24.20;99.90;;;;;;4994049;28;20081;-50
2023/09/22 06:50:59;;;;;;;12.07;3.85;;;24.20;99.90;;;;;;4993866;28;20061;-50
2023/09/22 06:53:26;;;;;;;12.00;4.22;;;24.40;99.90;;;;;;4993763;28;20022;-50
2023/09/22 06:56:11;;;;;;;6.00;3.35;;;24.60;99.90;;;;;;4933563;29;20097;-50
2023/09/22 06:58:40;;;;;;;7.50;2.88;;;24.80;99.90;;;;;;4886734;29;20477;-51
2023/09/22 07:01:10;;;;;;;8.73;3.40;;;24.70;99.90;;;;;;4933884;29;20043;-50
2023/09/22 07:03:37;;;;;;;12.73;4.10;;;24.80;99.90;;;;;;4933622;29;20035;-50
2023/09/22 07:06:05;;;;;;;8.52;3.35;;;25.00;99.90;;;;;;4933906;29;20555;-50
2023/09/22 07:08:32;;;;;;;12.38;3.78;;;;;;;;;;4933649;29;20547;-50
2023/09/22 07:11:05;;;;;;;11.63;3.60;;;;;;;;;;4933727;29;20048;-50
2023/09/22 07:13:31;;;;;;;12.10;3.88;;;;;;;;;;4933710;29;20043;-50
2023/09/22 07:15:58;;;;;;;8.48;2.97;;;;;;;;;;4933529;29;20086;-50
2023/09/22 07:18:26;;;;;;;14.80;3.60;;;26.00;99.90;;;;;;4931456;29;20480;-51
2023/09/22 07:20:55;;;;;;;15.07;3.75;;;26.50;99.90;;;;;;4932962;29;20035;-51
2023/09/22 07:23:22;;;;;;;12.18;3.83;;;26.80;99.90;;;;;;4917361;29;20028;-50
2023/09/22 07:26:01;;;;;;;12.88;3.92;;;26.50;99.90;;;;;;4937401;28;20032;-50
2023/09/22 07:28:28;;;;;;;12.02;4.35;;;;;;;;;;4988689;28;20031;-50
2023/09/22 07:30:54;;;;;;;11.90;3.53;;;;;;;;;;4990098;28;20046;-51
2023/09/22 07:33:21;;;;;;;12.90;4.00;;;26.80;99.90;;;;;;4992862;28;20034;-50
2023/09/22 07:35:49;;;;;;;12.13;3.75;;;;;;;;;;4992350;28;20508;-50
2023/09/22 07:38:19;;;;;;;10.82;3.90;;;27.20;99.90;;;;;;4943682;28;20450;-51
2023/09/22 07:40:45;;;;;;;13.25;4.50;;;;;;;;;;4992940;28;20027;-50
2023/09/22 07:43:11;;;;;;;13.15;4.50;;;27.90;99.90;;;;;;4992563;28;20073;-52
2023/09/22 07:45:38;;;;;;;11.00;3.67;;;;;;;;;;4985479;28;20030;-55
2023/09/22 07:48:04;;;;;;;10.20;5.35;;;;;;;;;;4988410;28;20040;-54
2023/09/22 07:50:30;;;;;;;11.27;3.85;;;28.90;99.90;;;;;;4971719;28;20041;-53
2023/09/22 07:52:56;;;;;;;11.27;4.20;;;;;;;;;;4990888;28;20030;-53
2023/09/22 07:55:23;;;;;;;12.50;3.85;;;28.90;99.90;;;;;;4992999;28;20038;-53
2023/09/22 07:57:50;;;;;;;12.70;3.97;;;29.10;99.90;;;;;;4994836;28;20045;-53
2023/09/22 08:00:18;;;;;;;16.15;4.88;;;;;;;;;;4996892;28;20034;-53
2023/09/22 08:02:45;;;;;;;6.10;2.97;;;;;;;;;;4996301;28;20047;-53
2023/09/22 08:05:15;;;;;;;10.98;4.93;;;;;;;;;;4993835;28;20548;-53
2023/09/22 08:07:42;;;;;;;11.70;5.30;;;;;;;;;;4996322;28;20038;-53
2023/09/22 08:10:10;;;;;;;15.77;4.32;;;;;;;;;;4978172;28;20589;-54
2023/09/22 08:12:36;;;;;;;14.77;4.25;;;;;;;;;;4996468;28;20466;-53
2023/09/22 08:15:02;;;;;;;15.23;5.43;;;;;;;;;;4996408;28;20031;-54
2023/09/22 08:17:28;;;;;;;20.92;6.00;;;;;;;;;;4996710;28;20030;-54
2023/09/22 08:19:54;;;;;;;10.30;3.45;;;;;;;;;;4996401;28;20041;-53
2023/09/22 08:22:20;;;;;;;21.00;5.15;;;30.60;99.90;;;;;;4996368;28;20038;-53
2023/09/22 08:24:50;;;;;;;17.50;5.45;;;30.70;99.90;;;;;;4996242;28;20027;-55
2023/09/22 08:27:16;;;;;;;13.75;3.97;;;30.40;99.90;;;;;;4963370;28;20486;-54
2023/09/22 08:29:42;;;;;;;20.77;4.97;;;30.30;99.90;;;;;;4996240;28;20064;-54
2023/09/22 08:32:07;;;;;;;11.52;3.92;;;30.90;99.90;;;;;;4995966;28;20457;-54
2023/09/22 08:34:35;;;;;;;15.70;5.93;;;;;;;;;;4962000;28;20061;-54
2023/09/22 08:37:01;;;;;;;15.70;4.55;;;31.30;99.80;;;;;;4962090;28;20046;-54
2023/09/22 08:39:30;;;;;;;10.45;4.10;;;;;;;;;;4996062;28;20088;-54
2023/09/22 08:41:56;;;;;;;16.67;4.13;;;;;;;;;;4996342;28;20084;-54
2023/09/22 08:44:24;;;;;;;12.48;4.00;;;31.70;99.90;;;;;;4996701;28;20397;-54
2023/09/22 08:46:50;;;;;;;8.98;2.90;;;31.30;98.80;;;;;;4995949;28;20064;-54
2023/09/22 08:49:16;;;;;;;13.90;3.80;;;30.70;98.80;;;;;;4995930;28;20485;-54
2023/09/22 08:51:42;;;;;;;11.80;3.90;;;31.10;99.00;;;;;;4978380;28;20030;-54
2023/09/22 08:54:11;;;;;;;10.52;4.40;;;31.10;98.90;;;;;;4995731;28;20062;-54
2023/09/22 08:56:37;;;;;;;13.27;4.22;;;31.50;99.10;;;;;;4995727;28;20458;-54
2023/09/22 08:59:03;;;;;;;18.58;5.47;;;;;;;;;;4995744;28;20497;-54
2023/09/22 09:01:29;;;;;;;13.95;4.10;;;;;;;;;;4996002;28;20477;-54
2023/09/22 09:03:55;;;;;;;14.75;5.07;;;;;;;;;;4995979;28;20080;-54
2023/09/22 09:06:21;;;;;;;8.68;3.03;;;32.50;99.90;;;;;;4995682;28;20030;-54
2023/09/22 09:09:09;;;;;;;14.15;4.65;;;;;;;;;;4977889;28;20053;-54
2023/09/22 09:11:35;;;;;;;20.30;5.28;;;;;;;;;;4995265;28;20040;-54
2023/09/22 09:14:20;;;;;;;16.70;4.90;;;;;;;;;;4995304;28;20449;-54
2023/09/22 09:16:46;;;;;;;13.32;4.47;;;33.50;97.90;;;;;;4995640;28;20030;-54
2023/09/22 09:19:16;;;;;;;24.60;5.85;;;;;;;;;;4961201;28;20158;-54
2023/09/22 09:22:01;;;;;;;17.85;5.25;;;;;;;;;;4961041;28;20470;-55
2023/09/22 09:24:31;;;;;;;15.48;5.10;;;;;;;;;;4995484;28;20482;-55
2023/09/22 09:26:58;;;;;;;15.45;5.00;;;;;;;;;;4995502;28;20034;-55
2023/09/22 09:29:31;;;;;;;13.43;5.05;;;;;;;;;;4978040;28;20141;-56
2023/09/22 09:32:03;;;;;;;13.43;4.68;;;;;;;;;;4977205;28;20104;-55
2023/09/22 09:34:40;;;;;;;29.35;5.50;;;;;;;;;;4995446;28;20052;-54
2023/09/22 09:37:12;;;;;;;19.00;5.78;;;;;;;;;;4995141;28;20069;-54
2023/09/22 09:39:49;;;;;;;17.15;5.03;;;;;;;;;;4994695;28;20045;-55
2023/09/22 09:42:18;;;;;;;20.48;5.15;;;;;;;;;;4977576;28;20027;-55
2023/09/22 09:44:47;;;;;;;10.40;3.80;;;;;;;;;;4977294;28;20385;-55
2023/09/22 09:47:20;;;;;;;17.92;5.57;;;;;;;;;;4977563;28;20023;-54
2023/09/22 09:49:47;;;;;;;14.25;4.68;;;;;;;;;;4994849;28;20441;-54
2023/09/22 09:52:16;;;;;;;20.10;5.25;;;;;;;;;;4994692;28;20049;-54
2023/09/22 09:54:45;;;;;;;16.70;5.15;;;;;;;;;;4994709;28;20062;-54
2023/09/22 09:57:11;;;;;;;17.15;4.53;;;37.90;99.90;;;;;;4994720;28;20041;-55
2023/09/22 09:59:39;;;;;;;30.60;6.00;;;;;;;;;;4994494;28;20033;-55
2023/09/22 10:02:07;;;;;;;23.08;4.70;;;;;;;;;;4994755;28;20034;-54
2023/09/22 10:04:34;;;;;;;14.55;4.30;;;38.60;92.70;;;;;;4994599;28;20370;-54
2023/09/22 10:07:01;;;;;;;16.40;4.13;;;;;;;;;;4994647;28;20026;-55
2023/09/22 10:09:26;;;;;;;20.00;5.18;;;38.90;91.40;;;;;;4994541;28;20026;-54
2023/09/22 10:11:52;;;;;;;20.10;4.70;;;39.30;91.30;;;;;;4994519;28;20060;-54
2023/09/22 10:14:44;;;;;;;15.45;4.20;;;39.60;90.90;;;;;;4994525;28;20410;-54
2023/09/22 10:17:21;;;;;;;18.20;5.05;;;;;;;;;;4994464;28;20100;-55
2023/09/22 10:19:47;;;;;;;17.60;5.70;;;39.70;90.40;;;;;;4993507;28;20109;-54
2023/09/22 10:22:12;;;;;;;20.13;5.28;;;39.50;90.30;;;;;;4994097;28;20101;-54
2023/09/22 10:24:38;;;;;;;22.40;4.65;;;39.60;90.00;;;;;;4943999;28;20034;-54
2023/09/22 10:27:08;;;;;;;21.88;5.60;;;39.60;90.20;;;;;;4959866;28;20499;-54
2023/09/22 10:29:34;;;;;;;14.05;4.70;;;39.40;90.10;;;;;;4994057;28;20038;-54
2023/09/22 10:32:18;;;;;;;19.00;5.28;;;39.30;90.80;;;;;;4994200;28;20061;-54
2023/09/22 10:34:55;;;;;;;17.52;4.47;;;;;;;;;;4993830;28;20125;-57
2023/09/22 10:37:29;;;;;;;14.75;4.82;;;37.50;89.30;;;;;;4993935;28;20034;-54
2023/09/22 10:39:58;;;;;;;18.30;4.70;;;38.00;90.30;;;;;;4993900;28;20371;-57
2023/09/22 10:42:26;;;;;;;18.08;5.07;;;;;;;;;;4994262;28;20497;-58
2023/09/22 10:45:05;;;;;;;16.15;5.65;;;39.30;88.90;;;;;;4993739;28;20125;-57
2023/09/22 10:47:38;;;;;;;16.65;5.50;;;39.50;90.00;;;;;;4943857;28;20038;-57
2023/09/22 10:50:15;;;;;;;19.13;4.70;;;40.00;97.90;;;;;;4981192;28;20041;-57
2023/09/22 10:52:48;;;;;;;13.85;4.03;;;40.50;90.00;;;;;;4959717;28;20100;-55
2023/09/22 10:55:24;;;;;;;13.18;3.58;;;40.40;87.40;;;;;;4993718;28;20363;-57
2023/09/22 10:57:50;;;;;;;18.10;4.90;;;40.10;86.70;;;;;;4993813;28;20034;-55
2023/09/22 11:00:18;;;;;;;16.38;4.32;;;40.10;86.40;;;;;;4993643;28;20027;-56
2023/09/22 11:02:44;;;;;;;15.13;4.40;;;40.30;86.50;;;;;;4959997;28;20085;-58
2023/09/22 11:05:17;;;;;;;13.75;4.22;;;40.40;86.90;;;;;;4993465;28;20647;-54
2023/09/22 11:07:43;;;;;;;21.42;4.65;;;40.40;86.10;;;;;;4993698;28;20489;-54
2023/09/22 11:10:18;;;;;;;78.57;20.02;;;40.30;86.70;;;;;;4993521;28;20027;-55
2023/09/22 11:12:54;;;;;;;18.27;5.18;;;40.30;86.80;;;;;;4933627;29;20139;-54
2023/09/22 11:15:20;;;;;;;16.48;4.63;;;;;;;;;;4931202;29;20052;-54
2023/09/22 11:17:47;;;;;;;19.83;4.88;;;40.60;90.70;;;;;;4930038;29;20051;-53
2023/09/22 11:20:27;;;;;;;18.27;4.57;;;39.90;86.30;;;;;;4896233;29;20400;-52
2023/09/22 11:22:53;;;;;;;31.80;10.20;;;40.00;85.40;;;;;;4901070;29;20067;-52
2023/09/22 11:25:21;;;;;;;16.85;4.93;;;40.00;86.30;;;;;;4916512;29;20108;-53
2023/09/22 11:27:51;;;;;;;18.00;4.65;;;39.20;85.60;;;;;;4933220;29;20051;-52
2023/09/22 11:30:20;;;;;;;20.35;5.13;;;39.20;85.70;;;;;;4897867;29;20040;-52
2023/09/22 11:32:47;;;;;;;15.25;4.47;;;39.50;86.60;;;;;;4899693;29;20040;-53
2023/09/22 11:35:39;;;;;;;16.67;4.85;;;39.50;85.80;;;;;;4932560;29;20451;-53
2023/09/22 11:38:28;;;;;;;18.13;5.72;;;39.90;86.80;;;;;;4937116;29;20048;-52
2023/09/22 11:41:04;;;;;;;14.80;3.95;;;;;;;;;;4905786;29;20046;-53
2023/09/22 11:43:31;;;;;;;11.98;3.83;;;40.10;85.10;;;;;;4961721;28;20133;-53
2023/09/22 11:46:22;;;;;;;18.25;4.40;;;40.10;84.70;;;;;;4997389;28;20474;-53
2023/09/22 11:49:05;;;;;;;20.13;5.05;;;39.40;84.60;;;;;;4978832;28;20046;-52
2023/09/22 11:51:57;;;;;;;16.90;4.75;;;39.70;85.10;;;;;;4936922;29;20419;-52
2023/09/22 11:54:25;;;;;;;24.75;7.13;;;;;;;;;;4936742;29;20557;-54
2023/09/22 11:56:56;;;;;;;19.33;5.18;;;38.70;85.40;;;;;;4937043;29;20059;-53
2023/09/22 11:59:22;;;;;;;;;;;38.80;85.60;;;;;;4934904;29;20043;-53
2023/09/22 12:01:51;;;;;;;14.43;4.60;;;39.20;85.90;;;;;;4936872;29;19911;-53
2023/09/22 12:04:19;;;;;;;14.05;4.55;;;39.30;86.00;;;;;;4920936;29;20127;-52
2023/09/22 12:06:45;;;;;;;17.50;4.75;;;39.10;85.70;;;;;;4936917;29;20048;-52
2023/09/22 12:09:15;;;;;;;14.82;4.13;;;39.50;85.70;;;;;;4936714;29;20055;-53
2023/09/22 12:11:42;;;;;;;19.85;5.28;;;39.40;84.60;;;;;;4936628;29;20119;-53
2023/09/22 12:14:08;;;;;;;17.83;4.38;;;39.00;86.10;;;;;;4936419;29;20027;-53
2023/09/22 12:16:34;;;;;;;13.57;4.78;;;39.30;84.90;;;;;;4898704;29;20052;-52
2023/09/22 12:19:00;;;;;;;12.68;4.20;;;;;;;;;;4898658;29;20095;-53
2023/09/22 12:21:28;;;;;;;17.17;4.20;;;;;;;;;;4898430;29;20045;-53
2023/09/22 12:23:54;;;;;;;20.67;5.18;;;;;;;;;;4952249;29;20232;-52
2023/09/22 12:26:23;;;;;;;15.57;4.88;;;37.40;93.20;;;;;;4936215;29;20054;-53
2023/09/22 12:28:49;;;;;;;29.75;5.78;;;;;;;;;;4934967;29;20051;-54
2023/09/22 12:31:16;;;;;;;13.60;4.10;;;37.10;84.80;;;;;;4928711;29;20055;-52
2023/09/22 12:33:42;;;;;;;15.75;5.35;;;37.20;86.10;;;;;;4936065;29;20035;-52
2023/09/22 12:36:11;;;;;;;18.85;5.00;;;37.50;86.70;;;;;;4935986;29;20621;-52
2023/09/22 12:38:38;;;;;;;16.45;6.03;;;;;;;;;;4936132;29;20046;-52
2023/09/22 12:41:05;;;;;;;15.50;4.80;;;38.00;84.80;;;;;;4936171;29;20048;-52
2023/09/22 12:43:31;;;;;;;20.52;4.43;;;38.40;86.10;;;;;;4935455;29;20066;-52
2023/09/22 12:45:58;;;;;;;14.02;4.55;;;;;;;;;;4936004;29;20536;-51
2023/09/22 12:48:23;;;;;;;17.25;4.75;;;38.50;84.10;;;;;;4952214;29;20070;-53
2023/09/22 12:50:56;;;;;;;17.42;4.95;;;37.90;84.70;;;;;;4955158;29;20125;-52
2023/09/22 12:53:27;;;;;;;14.02;4.43;;;38.10;85.00;;;;;;4939006;29;20141;-52
2023/09/22 12:55:57;;;;;;;17.48;4.70;;;38.30;85.00;;;;;;4955043;29;20451;-51
2023/09/22 12:58:27;;;;;;;15.25;4.88;;;38.60;90.00;;;;;;4993728;28;20042;-52
2023/09/22 13:01:05;;;;;;;16.88;4.75;;;38.50;84.70;;;;;;4945731;28;20042;-52
2023/09/22 13:03:34;;;;;;;18.50;5.15;;;37.50;84.80;;;;;;4995703;28;20177;-52
2023/09/22 13:06:02;;;;;;;18.80;4.85;;;37.30;85.20;;;;;;4995669;28;20026;-51